Time;durP1;ratioP1;P1;durP2;ratioP2;P2;SDS_P1;SDS_P2;PMS_P1;PMS_P2;Temp;Humidity;BMP_temperature;BMP_pressure;BME280_temperature;BME280_humidity;BME280_pressure;Samples;Min_cycle;Max_cycle;Signal;HPM_P1;HPM_P2
2023/03/20 00:02:24;;;;;;;;;;;17.40;92.10;;;;;;5080685;28;19947;-16
2023/03/20 00:04:50;;;;;;;;;;;17.40;92.10;;;;;;5098208;28;19923;-15
2023/03/20 00:07:17;;;;;;;;;;;17.40;92.10;;;;;;5097851;28;21468;-18
2023/03/20 00:09:43;;;;;;;;;;;17.40;92.10;;;;;;5098605;28;19968;-15
2023/03/20 00:12:17;;;;;;;;;;;17.40;92.10;;;;;;5097788;28;20443;-18
2023/03/20 00:14:43;;;;;;;;;;;17.30;92.10;;;;;;5080435;28;20332;-17
2023/03/20 00:17:09;;;;;;;;;;;17.30;92.10;;;;;;5080684;28;20417;-16
2023/03/20 00:19:35;;;;;;;;;;;17.30;92.10;;;;;;5098019;28;19935;-15
2023/03/20 00:22:04;;;;;;;;;;;17.30;92.10;;;;;;5098238;28;20159;-15
2023/03/20 00:24:30;;;;;;;;;;;17.30;92.10;;;;;;5080283;28;19939;-15
2023/03/20 00:26:56;;;;;;;;;;;17.30;92.10;;;;;;5098128;28;20352;-17
2023/03/20 00:29:31;;;;;;;;;;;17.40;92.10;;;;;;5098304;28;20343;-16
2023/03/20 00:31:57;;;;;;;;;;;17.30;92.10;;;;;;5080497;28;20201;-17
2023/03/20 00:34:25;;;;;;;;;;;17.30;92.10;;;;;;5080298;28;19980;-17
2023/03/20 00:36:52;;;;;;;;;;;17.30;92.10;;;;;;5080662;28;19908;-16
2023/03/20 00:39:38;;;;;;;;;;;17.30;92.10;;;;;;5098036;28;19908;-15
2023/03/20 00:42:05;;;;;;;;;;;17.30;92.10;;;;;;5098484;28;19976;-17
2023/03/20 00:44:37;;;;;;;;;;;17.30;92.10;;;;;;5098002;28;19912;-16
2023/03/20 00:47:17;;;;;;;;;;;17.30;92.10;;;;;;5098190;28;20461;-15
2023/03/20 00:49:44;;;;;;;;;;;17.30;92.10;;;;;;5080149;28;20010;-18
2023/03/20 00:52:13;;;;;;;;;;;17.30;92.10;;;;;;5098291;28;19994;-14
2023/03/20 00:54:42;;;;;;;;;;;17.20;92.10;;;;;;5097869;28;20316;-15
2023/03/20 00:57:13;;;;;;;;;;;17.30;92.10;;;;;;5080636;28;19931;-16
2023/03/20 00:59:40;;;;;;;;;;;17.30;92.10;;;;;;5097818;28;19915;-17
2023/03/20 01:02:06;;;;;;;;;;;17.30;92.10;;;;;;5097950;28;19908;-17
2023/03/20 01:04:36;;;;;;;;;;;17.20;92.10;;;;;;5097596;28;19919;-17
2023/03/20 01:07:02;;;;;;;;;;;17.20;92.10;;;;;;5098698;28;19908;-16
2023/03/20 01:09:30;;;;;;;;;;;17.20;92.10;;;;;;5102054;28;19969;-18
2023/03/20 01:11:57;;;;;;;;;;;17.20;92.10;;;;;;5118084;28;19908;-19
2023/03/20 01:14:25;;;;;;;;;;;17.20;92.10;;;;;;5084546;28;19919;-17
2023/03/20 01:16:51;;;;;;;;;;;17.20;92.10;;;;;;5101249;28;19908;-16
2023/03/20 01:19:16;;;;;;;;;;;17.20;92.10;;;;;;5099128;28;19908;-18
2023/03/20 01:21:42;;;;;;;;;;;17.20;92.10;;;;;;5082652;28;20388;-15
2023/03/20 01:24:08;;;;;;;;;;;17.20;92.10;;;;;;5098587;28;19918;-15
2023/03/20 01:26:38;;;;;;;;;;;17.20;92.10;;;;;;5098770;28;19908;-17
2023/03/20 01:29:11;;;;;;;;;;;17.20;92.10;;;;;;5098658;28;20262;-15
2023/03/20 01:31:36;;;;;;;;;;;17.20;92.10;;;;;;5097856;28;19919;-17
2023/03/20 01:34:05;;;;;;;;;;;17.20;92.10;;;;;;5097616;28;19916;-18
2023/03/20 01:36:31;;;;;;;;;;;17.20;92.10;;;;;;5096999;28;20188;-18
2023/03/20 01:38:57;;;;;;;;;;;17.10;92.10;;;;;;5080110;28;19915;-14
2023/03/20 01:41:24;;;;;;;;;;;17.20;92.10;;;;;;5080323;28;20181;-16
2023/03/20 01:43:50;;;;;;;;;;;17.10;92.10;;;;;;5097455;28;19915;-15
2023/03/20 01:46:22;;;;;;;;;;;17.10;92.10;;;;;;5080718;28;19916;-18
2023/03/20 01:48:57;;;;;;;;;;;17.10;92.10;;;;;;5080578;28;19937;-16
2023/03/20 01:51:26;;;;;;;;;;;17.10;92.10;;;;;;5098324;28;20057;-15
2023/03/20 01:53:57;;;;;;;;;;;17.10;92.10;;;;;;5082583;28;19919;-13
2023/03/20 01:56:26;;;;;;;;;;;17.10;92.10;;;;;;5083123;28;20227;-16
2023/03/20 01:59:24;;;;;;;;;;;17.10;92.10;;;;;;5100795;28;19908;-14
2023/03/20 02:01:50;;;;;;;;;;;17.10;92.10;;;;;;5066149;28;19916;-18
2023/03/20 02:04:16;;;;;;;;;;;17.10;92.10;;;;;;5099688;28;19912;-13
2023/03/20 02:06:44;;;;;;;;;;;17.10;92.10;;;;;;5100110;28;20258;-14
2023/03/20 02:09:11;;;;;;;;;;;17.10;92.10;;;;;;5082638;28;19908;-14
2023/03/20 02:11:39;;;;;;;;;;;17.10;92.10;;;;;;5100712;28;20266;-16
2023/03/20 02:14:05;;;;;;;;;;;17.10;92.10;;;;;;5081897;28;19922;-17
2023/03/20 02:16:31;;;;;;;;;;;17.00;92.00;;;;;;5099991;28;19908;-15
2023/03/20 02:18:57;;;;;;;;;;;17.00;92.00;;;;;;5082433;28;19973;-18
2023/03/20 02:21:44;;;;;;;;;;;17.00;92.00;;;;;;5082349;28;20257;-16
2023/03/20 02:24:28;;;;;;;;;;;17.00;92.00;;;;;;5100517;28;19912;-17
2023/03/20 02:27:02;;;;;;;;;;;17.00;92.10;;;;;;5082489;28;19923;-17
2023/03/20 02:29:46;;;;;;;;;;;17.00;92.10;;;;;;5082686;28;20337;-15
2023/03/20 02:35:34;;;;;;;;;;;17.00;92.10;;;;;;5100506;28;19927;-14
2023/03/20 02:38:02;;;;;;;;;;;17.00;92.10;;;;;;5100274;28;19919;-15
2023/03/20 02:40:57;;;;;;;;;;;17.00;92.10;;;;;;5099929;28;20002;-17
2023/03/20 02:43:23;;;;;;;;;;;17.00;92.10;;;;;;5086574;28;19990;-17
2023/03/20 02:46:23;;;;;;;;;;;17.00;92.10;;;;;;5082705;28;20046;-15
2023/03/20 02:49:07;;;;;;;;;;;17.00;92.10;;;;;;5099628;28;19912;-13
2023/03/20 02:51:41;;;;;;;;;;;16.90;92.10;;;;;;5082522;28;20324;-19
2023/03/20 02:57:21;;;;;;;;;;;16.90;92.10;;;;;;5099719;28;19962;-15
2023/03/20 02:59:55;;;;;;;;;;;16.90;92.10;;;;;;5099552;28;19909;-18
2023/03/20 03:02:25;;;;;;;;;;;16.90;92.10;;;;;;5081987;28;20189;-17
2023/03/20 03:05:15;;;;;;;;;;;16.90;92.10;;;;;;5099647;28;19919;-15
2023/03/20 03:07:45;;;;;;;;;;;16.90;92.10;;;;;;5082152;28;19916;-13
2023/03/20 03:10:16;;;;;;;;;;;16.90;92.10;;;;;;5081760;28;19912;-15
2023/03/20 03:12:43;;;;;;;;;;;16.90;92.10;;;;;;5098934;28;19908;-15
2023/03/20 03:15:29;;;;;;;;;;;16.80;92.10;;;;;;5081795;28;19919;-17
2023/03/20 03:17:58;;;;;;;;;;;16.90;92.10;;;;;;5099400;28;19908;-17
2023/03/20 03:20:29;;;;;;;;;;;16.80;92.00;;;;;;5081936;28;19919;-16
2023/03/20 03:22:55;;;;;;;;;;;16.80;92.00;;;;;;5099335;28;19916;-17
2023/03/20 03:25:23;;;;;;;;;;;16.90;92.10;;;;;;5099248;28;19962;-17
2023/03/20 03:27:55;;;;;;;;;;;16.80;92.00;;;;;;5099495;28;20336;-14
2023/03/20 03:30:33;;;;;;;;;;;16.80;92.00;;;;;;5098817;28;19920;-17
2023/03/20 03:33:10;;;;;;;;;;;16.80;92.00;;;;;;5099122;28;19919;-18
2023/03/20 03:35:36;;;;;;;;;;;16.80;92.00;;;;;;5099160;28;19999;-16
2023/03/20 03:38:09;;;;;;;;;;;16.80;92.00;;;;;;5098917;28;20189;-18
2023/03/20 03:40:45;;;;;;;;;;;16.80;92.00;;;;;;5098622;28;19919;-16
2023/03/20 03:49:29;;;;;;;;;;;16.80;92.00;;;;;;5047541;28;19926;-16
2023/03/20 03:51:57;;;;;;;;;;;16.80;92.00;;;;;;5098525;28;19908;-16
2023/03/20 03:54:26;;;;;;;;;;;16.70;91.90;;;;;;5081052;28;19916;-16
2023/03/20 03:57:01;;;;;;;;;;;16.80;92.00;;;;;;5098477;28;19919;-17
2023/03/20 03:59:31;;;;;;;;;;;16.70;91.90;;;;;;5098755;28;19947;-17
2023/03/20 04:02:02;;;;;;;;;;;16.80;91.90;;;;;;5098580;28;19908;-15
2023/03/20 04:04:29;;;;;;;;;;;16.70;91.90;;;;;;5080893;28;20388;-13
2023/03/20 04:07:02;;;;;;;;;;;16.70;91.90;;;;;;5080591;28;19995;-15
2023/03/20 04:09:28;;;;;;;;;;;16.70;91.90;;;;;;5080713;28;20297;-15
2023/03/20 04:11:56;;;;;;;;;;;16.70;91.90;;;;;;5080580;28;19908;-14
2023/03/20 04:14:22;;;;;;;;;;;16.70;91.90;;;;;;5081251;28;19908;-15
2023/03/20 04:17:16;;;;;;;;;;;16.70;91.90;;;;;;5098463;28;19908;-15
2023/03/20 04:19:42;;;;;;;;;;;16.70;91.90;;;;;;5081235;28;19908;-16
2023/03/20 04:22:07;;;;;;;;;;;16.70;91.90;;;;;;5098660;28;19908;-17
2023/03/20 04:24:33;;;;;;;;;;;16.60;91.90;;;;;;5080609;28;19912;-15
2023/03/20 04:26:58;;;;;;;;;;;16.60;91.90;;;;;;5098296;28;20213;-18
2023/03/20 04:29:25;;;;;;;;;;;16.60;91.90;;;;;;5098122;28;20053;-16
2023/03/20 04:31:50;;;;;;;;;;;16.60;91.90;;;;;;5081295;28;19909;-16
2023/03/20 04:34:35;;;;;;;;;;;16.60;91.90;;;;;;5080175;28;19976;-18
2023/03/20 04:37:01;;;;;;;;;;;16.60;91.90;;;;;;5080931;28;20345;-13
2023/03/20 04:39:26;;;;;;;;;;;16.60;91.90;;;;;;5097939;28;19950;-15
2023/03/20 04:41:55;;;;;;;;;;;16.60;91.90;;;;;;5082729;28;19908;-15
2023/03/20 04:44:39;;;;;;;;;;;16.60;91.90;;;;;;5084411;28;19912;-15
2023/03/20 04:47:05;;;;;;;;;;;16.60;91.90;;;;;;5084546;28;19912;-17
2023/03/20 04:49:31;;;;;;;;;;;16.60;91.90;;;;;;5101915;28;19956;-15
2023/03/20 04:51:59;;;;;;;;;;;16.60;91.90;;;;;;5101812;28;19908;-16
2023/03/20 04:54:34;;;;;;;;;;;16.60;91.80;;;;;;5101784;28;19908;-16
2023/03/20 04:56:59;;;;;;;;;;;16.60;91.80;;;;;;5101917;28;19974;-17
2023/03/20 04:59:25;;;;;;;;;;;16.60;91.80;;;;;;5101656;28;19981;-16
2023/03/20 05:01:50;;;;;;;;;;;16.60;91.80;;;;;;5101635;28;19957;-18
2023/03/20 05:04:18;;;;;;;;;;;16.60;91.80;;;;;;5100939;28;19969;-18
2023/03/20 05:06:47;;;;;;;;;;;16.50;91.80;;;;;;5101056;28;19908;-16
2023/03/20 05:09:14;;;;;;;;;;;16.50;91.80;;;;;;5101390;28;19908;-17
2023/03/20 05:11:40;;;;;;;;;;;16.50;91.80;;;;;;5084202;28;19908;-16
2023/03/20 05:14:10;;;;;;;;;;;16.50;91.80;;;;;;5101288;28;19938;-17
2023/03/20 05:16:36;;;;;;;;;;;16.50;91.80;;;;;;5101391;28;20201;-17
2023/03/20 05:19:05;;;;;;;;;;;16.50;91.80;;;;;;5084243;28;20336;-18
2023/03/20 05:21:38;;;;;;;;;;;16.50;91.70;;;;;;5101250;28;19958;-16
2023/03/20 05:24:04;;;;;;;;;;;16.50;91.70;;;;;;5081633;28;19913;-16
2023/03/20 05:26:29;;;;;;;;;;;16.50;91.70;;;;;;5100239;28;20511;-17
2023/03/20 05:28:55;;;;;;;;;;;16.50;91.70;;;;;;5101160;28;19913;-17
2023/03/20 05:31:20;;;;;;;;;;;16.50;91.70;;;;;;5100661;28;20006;-16
2023/03/20 05:33:46;;;;;;;;;;;16.50;91.70;;;;;;5083594;28;20242;-16
2023/03/20 05:36:11;;;;;;;;;;;16.50;91.70;;;;;;5100491;28;20002;-17
2023/03/20 05:38:37;;;;;;;;;;;16.50;92.00;;;;;;5100126;28;19908;-17
2023/03/20 05:41:05;;;;;;;;;;;16.40;91.70;;;;;;5101082;28;20003;-16
2023/03/20 05:43:31;;;;;;;;;;;16.40;91.60;;;;;;5100650;28;19908;-15
2023/03/20 05:45:56;;;;;;;;;;;16.40;91.60;;;;;;5082748;28;19978;-14
2023/03/20 05:48:23;;;;;;;;;;;16.50;91.70;;;;;;5099987;28;19908;-17
2023/03/20 05:50:48;;;;;;;;;;;16.50;91.70;;;;;;5101215;28;19909;-16
2023/03/20 05:53:14;;;;;;;;;;;16.40;91.60;;;;;;5082439;28;19908;-18
2023/03/20 05:55:40;;;;;;;;;;;16.40;91.60;;;;;;5083087;28;20431;-15
2023/03/20 05:58:06;;;;;;;;;;;16.40;91.60;;;;;;5082418;28;19931;-18
2023/03/20 06:00:31;;;;;;;;;;;16.40;91.60;;;;;;5082810;28;20203;-17
2023/03/20 06:02:57;;;;;;;;;;;16.40;91.60;;;;;;5100057;28;20197;-17
2023/03/20 06:05:41;;;;;;;;;;;16.40;91.60;;;;;;5082595;28;19919;-16
2023/03/20 06:08:06;;;;;;;;;;;16.40;91.60;;;;;;5099136;28;19916;-15
2023/03/20 06:10:32;;;;;;;;;;;16.40;91.60;;;;;;5082189;28;19908;-16
2023/03/20 06:12:59;;;;;;;;;;;16.40;91.60;;;;;;5099829;28;19916;-18
2023/03/20 06:15:28;;;;;;;;;;;16.40;91.60;;;;;;5082353;28;19924;-15
2023/03/20 06:17:54;;;;;;;;;;;16.40;91.70;;;;;;5082564;28;19912;-17
2023/03/20 06:20:20;;;;;;;;;;;16.40;91.80;;;;;;5100038;28;19908;-17
2023/03/20 06:22:47;;;;;;;;;;;16.40;91.90;;;;;;5099787;28;19912;-17
2023/03/20 06:25:13;;;;;;;;;;;16.50;92.00;;;;;;5099565;28;19962;-16
2023/03/20 06:27:38;;;;;;;;;;;16.50;92.00;;;;;;5099245;28;19932;-18
2023/03/20 06:30:04;;;;;;;;;;;16.50;92.10;;;;;;5099136;28;19948;-17
2023/03/20 06:32:30;;;;;;;;;;;16.50;92.10;;;;;;5099160;28;19999;-15
2023/03/20 06:34:56;;;;;;;;;;;16.50;92.20;;;;;;5081322;28;19995;-15
2023/03/20 06:37:21;;;;;;;;;;;16.50;92.20;;;;;;5081431;28;19969;-14
2023/03/20 06:39:47;;;;;;;;;;;16.50;92.20;;;;;;5081472;28;20402;-18
2023/03/20 06:42:12;;;;;;;;;;;16.50;92.20;;;;;;5063860;28;20196;-15
2023/03/20 06:44:38;;;;;;;;;;;16.50;92.20;;;;;;5097830;28;20313;-18
2023/03/20 06:47:04;;;;;;;;;;;16.50;92.30;;;;;;5097573;28;19909;-16
2023/03/20 06:49:31;;;;;;;;;;;16.50;92.30;;;;;;5097728;28;19908;-14
2023/03/20 06:51:58;;;;;;;;;;;16.50;92.40;;;;;;5080236;28;20269;-15
2023/03/20 06:54:23;;;;;;;;;;;16.50;92.40;;;;;;5080023;28;20015;-17
2023/03/20 06:56:49;;;;;;;;;;;16.50;92.50;;;;;;5097739;28;19955;-16
2023/03/20 06:59:15;;;;;;;;;;;16.50;92.60;;;;;;5078816;28;19912;-17
2023/03/20 07:01:41;;;;;;;;;;;16.50;92.60;;;;;;5079298;28;19908;-17
2023/03/20 07:04:06;;;;;;;;;;;16.60;92.50;;;;;;5095754;28;19919;-18
2023/03/20 07:06:32;;;;;;;;;;;16.60;92.40;;;;;;5097122;28;20052;-16
2023/03/20 07:09:03;;;;;;;;;;;16.60;92.30;;;;;;5078304;28;19931;-15
2023/03/20 07:11:29;;;;;;;;;;;16.60;92.30;;;;;;5079677;28;19908;-13
2023/03/20 07:13:55;;;;;;;;;;;16.60;92.10;;;;;;5097097;28;19908;-17
2023/03/20 07:16:21;;;;;;;;;;;16.70;92.10;;;;;;5096442;28;19909;-18
2023/03/20 07:18:46;;;;;;;;;;;16.90;91.60;;;;;;5097066;28;19919;-17
2023/03/20 07:21:16;;;;;;;;;;;16.90;91.30;;;;;;5079622;28;19926;-19
2023/03/20 07:23:42;;;;;;;;;;;17.00;91.20;;;;;;5079490;28;19949;-15
2023/03/20 07:26:44;;;;;;;;;;;17.00;91.00;;;;;;5095781;28;19951;-18
2023/03/20 07:29:10;;;;;;;;;;;17.00;90.90;;;;;;5097156;28;19908;-18
2023/03/20 07:31:35;;;;;;;;;;;17.00;90.80;;;;;;5079615;28;19933;-17
2023/03/20 07:34:01;;;;;;;;;;;17.10;90.70;;;;;;5078968;28;19927;-16
2023/03/20 07:36:26;;;;;;;;;;;17.10;90.60;;;;;;5096787;28;19960;-18
2023/03/20 07:38:52;;;;;;;;;;;17.00;90.60;;;;;;5096634;28;19908;-18
2023/03/20 07:41:23;;;;;;;;;;;17.00;90.60;;;;;;5079165;28;19937;-15
2023/03/20 07:43:48;;;;;;;;;;;17.00;90.60;;;;;;5079133;28;19908;-14
2023/03/20 07:46:14;;;;;;;;;;;17.00;90.50;;;;;;5079502;28;19920;-14
2023/03/20 07:48:39;;;;;;;;;;;17.10;91.00;;;;;;5096950;28;20310;-15
2023/03/20 07:51:13;;;;;;;;;;;17.20;90.70;;;;;;5096351;28;19912;-17
2023/03/20 07:53:41;;;;;;;;;;;17.30;90.30;;;;;;5113619;28;19947;-15
2023/03/20 07:56:07;;;;;;;;;;;17.50;89.30;;;;;;5097120;28;19918;-16
2023/03/20 07:58:33;;;;;;;;;;;17.70;87.30;;;;;;5097255;28;20350;-18
2023/03/20 08:00:58;;;;;;;;;;;17.80;86.00;;;;;;5087574;28;19916;-30
2023/03/20 08:03:24;;;;;;;;;;;17.80;85.40;;;;;;5058446;28;19909;-13
2023/03/20 08:05:53;;;;;;;;;;;17.80;84.70;;;;;;5058094;28;19956;-15
2023/03/20 08:08:38;;;;;;;;;;;17.80;84.10;;;;;;5073814;28;19995;-17
2023/03/20 08:11:07;;;;;;;;;;;17.80;83.50;;;;;;5075978;28;20011;-15
2023/03/20 08:13:33;;;;;;;;;;;17.90;83.10;;;;;;5076012;28;19919;-15
2023/03/20 08:15:58;;;;;;;;;;;17.80;82.50;;;;;;5074893;28;19909;-16
2023/03/20 08:18:27;;;;;;;;;;;17.80;82.10;;;;;;5058567;28;19917;-15
2023/03/20 08:20:55;;;;;;;;;;;17.80;82.60;;;;;;5057752;28;20301;-16
2023/03/20 08:23:28;;;;;;;;;;;17.80;85.90;;;;;;5075414;28;19913;-14
2023/03/20 08:25:53;;;;;;;;;;;17.80;87.60;;;;;;5094443;28;19918;-17
2023/03/20 08:28:19;;;;;;;;;;;17.80;87.80;;;;;;5079299;28;20002;-14
2023/03/20 08:30:45;;;;;;;;;;;17.80;87.50;;;;;;5078805;28;19998;-17
2023/03/20 08:33:17;;;;;;;;;;;17.80;87.00;;;;;;5075534;28;19917;-14
2023/03/20 08:35:55;;;;;;;;;;;17.90;86.40;;;;;;5079131;28;19920;-16
2023/03/20 08:38:21;;;;;;;;;;;18.00;85.10;;;;;;5078341;28;19908;-16
2023/03/20 08:40:46;;;;;;;;;;;18.10;84.00;;;;;;5077653;28;19908;-18
2023/03/20 08:43:12;;;;;;;;;;;18.10;83.00;;;;;;5078294;28;19962;-17
2023/03/20 08:45:37;;;;;;;;;;;18.10;82.60;;;;;;5095274;28;19941;-16
2023/03/20 08:48:04;;;;;;;;;;;18.10;81.90;;;;;;5077526;28;19908;-15
2023/03/20 08:50:33;;;;;;;;;;;18.20;82.70;;;;;;5077336;28;19908;-16
2023/03/20 08:52:58;;;;;;;;;;;18.30;82.90;;;;;;5090182;28;19919;-15
2023/03/20 08:55:24;;;;;;;;;;;18.30;82.30;;;;;;5075373;28;19909;-16
2023/03/20 08:57:55;;;;;;;;;;;18.30;82.00;;;;;;5057792;28;19923;-15
2023/03/20 09:00:22;;;;;;;;;;;18.30;81.50;;;;;;5075433;28;19908;-14
2023/03/20 09:02:48;;;;;;;;;;;18.30;81.20;;;;;;5086296;28;19908;-16
2023/03/20 09:05:13;;;;;;;;;;;18.30;80.70;;;;;;5077611;28;19942;-15
2023/03/20 09:07:41;;;;;;;;;;;18.40;80.50;;;;;;5094563;28;20342;-17
2023/03/20 09:10:08;;;;;;;;;;;18.40;80.10;;;;;;5095634;28;19999;-15
2023/03/20 09:12:34;;;;;;;;;;;18.40;79.90;;;;;;5094513;28;20416;-17
2023/03/20 09:15:00;;;;;;;;;;;18.30;80.00;;;;;;5077875;28;19965;-14
2023/03/20 09:17:26;;;;;;;;;;;18.20;80.20;;;;;;5078263;28;20491;-17
2023/03/20 09:19:51;;;;;;;;;;;18.10;80.70;;;;;;5077720;28;19909;-18
2023/03/20 09:22:17;;;;;;;;;;;18.10;81.00;;;;;;5077212;28;19912;-17
2023/03/20 09:24:43;;;;;;;;;;;18.00;81.40;;;;;;5078402;28;19922;-15
2023/03/20 09:27:08;;;;;;;;;;;18.00;81.90;;;;;;5095810;28;19948;-17
2023/03/20 09:29:34;;;;;;;;;;;17.90;82.10;;;;;;5081156;28;19908;-15
2023/03/20 09:32:00;;;;;;;;;;;17.90;82.20;;;;;;5072092;28;19917;-17
2023/03/20 09:34:25;;;;;;;;;;;17.90;82.30;;;;;;5061469;28;19927;-17
2023/03/20 09:36:54;;;;;;;;;;;17.90;82.60;;;;;;5079369;28;19999;-19
2023/03/20 09:39:20;;;;;;;;;;;17.80;82.70;;;;;;5061788;28;19909;-16
2023/03/20 09:41:47;;;;;;;;;;;17.80;82.80;;;;;;5079219;28;20396;-15
2023/03/20 09:44:40;;;;;;;;;;;17.80;83.00;;;;;;5078785;28;20458;-17
2023/03/20 09:47:10;;;;;;;;;;;17.70;83.20;;;;;;5061116;28;20296;-16
2023/03/20 09:49:55;;;;;;;;;;;17.70;83.40;;;;;;5061997;28;20053;-17
2023/03/20 09:52:20;;;;;;;;;;;17.70;83.50;;;;;;5079122;28;19966;-17
2023/03/20 09:54:47;;;;;;;;;;;17.70;83.70;;;;;;5078362;28;19913;-15
2023/03/20 09:57:16;;;;;;;;;;;17.70;83.80;;;;;;5094938;28;19909;-15
2023/03/20 09:59:42;;;;;;;;;;;17.60;83.90;;;;;;5078931;28;19919;-17
2023/03/20 10:02:23;;;;;;;;;;;17.60;83.90;;;;;;5077793;28;19908;-16
2023/03/20 10:04:52;;;;;;;;;;;17.60;84.10;;;;;;5077909;28;19913;-15
2023/03/20 10:07:21;;;;;;;;;;;17.60;84.20;;;;;;5094914;28;19908;-13
2023/03/20 10:09:46;;;;;;;;;;;17.60;84.10;;;;;;5061027;28;19916;-17
2023/03/20 10:12:28;;;;;;;;;;;17.60;84.20;;;;;;5078317;28;19922;-18
2023/03/20 10:15:25;;;;;;;;;;;17.60;84.20;;;;;;5078428;28;20312;-15
2023/03/20 10:18:01;;;;;;;;;;;17.60;84.30;;;;;;5059004;28;19921;-18
2023/03/20 10:20:41;;;;;;;;;;;17.60;84.40;;;;;;5078375;28;19920;-18
2023/03/20 10:23:37;;;;;;;;;;;17.60;84.40;;;;;;5078044;28;19913;-15
2023/03/20 10:26:09;;;;;;;;;;;17.60;84.40;;;;;;5092039;28;19913;-16
2023/03/20 10:28:39;;;;;;;;;;;17.60;84.40;;;;;;5097668;28;19940;-15
2023/03/20 10:31:23;;;;;;;;;;;17.50;84.30;;;;;;5080253;28;19951;-16
2023/03/20 10:33:49;;;;;;;;;;;17.50;84.30;;;;;;5097869;28;19919;-17
2023/03/20 10:36:18;;;;;;;;;;;17.60;84.20;;;;;;5097504;28;19912;-18
2023/03/20 10:38:43;;;;;;;;;;;17.60;84.20;;;;;;5097304;28;19934;-17
2023/03/20 10:41:13;;;;;;;;;;;17.60;84.00;;;;;;5081374;28;19908;-19
2023/03/20 10:43:39;;;;;;;;;;;17.60;83.90;;;;;;5098142;28;20196;-15
2023/03/20 10:46:17;;;;;;;;;;;17.60;83.90;;;;;;5079551;28;20308;-17
2023/03/20 10:48:42;;;;;;;;;;;17.60;83.80;;;;;;5097147;28;19916;-17
2023/03/20 10:51:18;;;;;;;;;;;17.60;83.70;;;;;;5097332;28;19915;-18
2023/03/20 10:54:00;;;;;;;;;;;17.60;83.50;;;;;;5097069;28;19908;-18
2023/03/20 10:56:25;;;;;;;;;;;17.60;83.30;;;;;;5079534;28;19927;-15
2023/03/20 10:58:55;;;;;;;;;;;17.70;83.00;;;;;;5080601;28;19916;-15
2023/03/20 11:01:21;;;;;;;;;;;17.70;82.80;;;;;;5076865;28;19919;-17
2023/03/20 11:03:47;;;;;;;;;;;17.70;82.70;;;;;;5077067;28;19909;-17
2023/03/20 11:06:27;;;;;;;;;;;17.70;82.80;;;;;;5076257;28;20010;-18
2023/03/20 11:08:53;;;;;;;;;;;17.60;82.70;;;;;;5077026;28;19961;-17
2023/03/20 11:11:22;;;;;;;;;;;17.70;82.70;;;;;;5058890;28;19912;-14
2023/03/20 11:13:48;;;;;;;;;;;17.70;82.60;;;;;;5059784;28;19915;-14
2023/03/20 11:16:21;;;;;;;;;;;17.70;82.50;;;;;;5077480;28;19908;-16
2023/03/20 11:18:51;;;;;;;;;;;17.60;82.40;;;;;;5077223;28;20024;-16
2023/03/20 11:21:26;;;;;;;;;;;17.70;82.30;;;;;;5058282;28;19921;-17
2023/03/20 11:23:56;;;;;;;;;;;17.70;82.00;;;;;;5077949;28;19919;-13
2023/03/20 11:26:36;;;;;;;;;;;17.70;81.70;;;;;;5077404;28;19913;-14
2023/03/20 11:29:04;;;;;;;;;;;17.80;81.50;;;;;;5076540;28;19916;-14
2023/03/20 11:31:34;;;;;;;;;;;17.80;81.10;;;;;;5076873;28;19974;-17
2023/03/20 11:34:03;;;;;;;;;;;17.80;80.80;;;;;;5059575;28;20030;-16
2023/03/20 11:36:33;;;;;;;;;;;17.90;80.50;;;;;;5077317;28;19971;-16
2023/03/20 11:39:05;;;;;;;;;;;17.90;80.20;;;;;;5059976;28;19916;-16
2023/03/20 11:41:31;;;;;;;;;;;17.90;79.80;;;;;;5124083;27;19908;-16
2023/03/20 11:43:56;;;;;;;;;;;17.90;79.50;;;;;;5097314;28;19915;-16
2023/03/20 11:46:23;;;;;;;;;;;18.00;79.30;;;;;;5096774;28;19908;-17
2023/03/20 11:49:19;;;;;;;;;;;18.00;78.90;;;;;;5092157;28;20014;-18
2023/03/20 11:51:45;;;;;;;;;;;18.00;78.60;;;;;;5112321;28;20248;-16
2023/03/20 11:54:15;;;;;;;;;;;18.00;78.40;;;;;;5097367;28;20336;-16
2023/03/20 11:56:50;;;;;;;;;;;18.00;78.40;;;;;;5097678;28;19930;-15
2023/03/20 11:59:18;;;;;;;;;;;18.00;78.30;;;;;;5096521;28;19938;-14
2023/03/20 12:01:49;;;;;;;;;;;18.00;78.30;;;;;;5078422;28;19908;-18
2023/03/20 12:04:15;;;;;;;;;;;18.00;78.40;;;;;;5095770;28;19908;-18
2023/03/20 12:06:55;;;;;;;;;;;18.00;78.80;;;;;;5078572;28;20006;-17
2023/03/20 12:09:40;;;;;;;;;;;17.90;79.00;;;;;;5077789;28;19920;-18
2023/03/20 12:12:09;;;;;;;;;;;17.90;79.40;;;;;;5094953;28;19909;-15
2023/03/20 12:14:35;;;;;;;;;;;18.00;79.50;;;;;;5078717;28;20368;-19
2023/03/20 12:17:09;;;;;;;;;;;18.00;78.40;;;;;;5096938;28;20277;-15
2023/03/20 12:19:35;;;;;;;;;;;18.00;79.20;;;;;;5096173;28;19935;-16
2023/03/20 12:22:13;;;;;;;;;;;17.90;79.10;;;;;;5096422;28;20289;-18
2023/03/20 12:24:45;;;;;;;;;;;17.90;78.90;;;;;;5096993;28;20272;-18
2023/03/20 12:27:19;;;;;;;;;;;17.90;78.80;;;;;;5078800;28;19908;-16
2023/03/20 12:29:47;;;;;;;;;;;17.90;78.80;;;;;;5096274;28;19934;-16
2023/03/20 12:32:18;;;;;;;;;;;17.90;78.80;;;;;;5094849;28;19908;-14
2023/03/20 12:34:50;;;;;;;;;;;17.90;78.60;;;;;;5078326;28;19981;-15
2023/03/20 12:37:17;;;;;;;;;;;17.90;78.30;;;;;;5096073;28;19908;-18
2023/03/20 12:40:09;;;;;;;;;;;17.90;78.20;;;;;;5095760;28;20232;-16
2023/03/20 12:42:53;;;;;;;;;;;17.90;78.20;;;;;;5068855;28;19959;-18
2023/03/20 12:45:20;;;;;;;;;;;17.90;78.10;;;;;;5074191;28;20417;-17
2023/03/20 12:47:46;;;;;;;;;;;17.90;78.00;;;;;;5075537;28;19996;-17
2023/03/20 12:50:24;;;;;;;;;;;17.90;78.10;;;;;;5058514;28;19999;-16
2023/03/20 12:53:09;;;;;;;;;;;17.80;78.10;;;;;;5058471;28;19923;-16
2023/03/20 12:55:40;;;;;;;;;;;17.80;78.20;;;;;;5058345;28;19919;-17
2023/03/20 12:58:13;;;;;;;;;;;17.80;78.20;;;;;;5058202;28;19912;-17
2023/03/20 13:00:57;;;;;;;;;;;17.80;78.30;;;;;;5057892;28;19909;-18
2023/03/20 13:03:24;;;;;;;;;;;17.70;78.10;;;;;;5059398;28;19920;-14
2023/03/20 13:06:08;;;;;;;;;;;17.80;78.00;;;;;;5079697;28;20007;-17
2023/03/20 13:08:35;;;;;;;;;;;17.80;77.80;;;;;;5079585;28;19981;-16
2023/03/20 13:11:22;;;;;;;;;;;17.80;77.70;;;;;;5061920;28;19908;-18
2023/03/20 13:13:51;;;;;;;;;;;17.80;77.50;;;;;;5061358;28;19908;-15
2023/03/20 13:16:34;;;;;;;;;;;17.80;77.50;;;;;;5078451;28;19919;-15
2023/03/20 13:19:18;;;;;;;;;;;17.80;77.40;;;;;;5078922;28;20160;-16
2023/03/20 13:21:43;;;;;;;;;;;17.80;77.30;;;;;;5079490;28;19936;-15
2023/03/20 13:24:35;;;;;;;;;;;17.80;77.50;;;;;;5061968;28;19913;-18
2023/03/20 13:27:25;;;;;;;;;;;17.70;77.50;;;;;;5059452;28;19919;-14
2023/03/20 13:30:02;;;;;;;;;;;17.70;77.60;;;;;;5079578;28;20337;-13
2023/03/20 13:32:37;;;;;;;;;;;17.70;78.20;;;;;;5078446;28;19962;-17
2023/03/20 13:35:05;;;;;;;;;;;17.70;77.70;;;;;;5061927;28;20370;-15
2023/03/20 13:37:34;;;;;;;;;;;17.70;78.30;;;;;;5061181;28;20268;-15
2023/03/20 13:40:15;;;;;;;;;;;17.70;77.70;;;;;;5078102;28;19909;-15
2023/03/20 13:42:49;;;;;;;;;;;17.70;77.70;;;;;;5094600;28;20003;-14
2023/03/20 13:45:36;;;;;;;;;;;17.70;77.70;;;;;;5060404;28;19912;-15
2023/03/20 13:48:20;;;;;;;;;;;17.70;77.60;;;;;;5060015;28;19961;-16
2023/03/20 13:50:55;;;;;;;;;;;17.70;77.60;;;;;;5078005;28;19904;-15
2023/03/20 13:53:28;;;;;;;;;;;17.70;77.60;;;;;;5077232;28;19908;-18
2023/03/20 13:56:04;;;;;;;;;;;17.70;77.60;;;;;;5077854;28;19919;-17
2023/03/20 13:58:33;;;;;;;;;;;17.60;77.50;;;;;;5094450;28;19920;-16
2023/03/20 14:01:06;;;;;;;;;;;17.60;78.20;;;;;;5077692;28;19962;-16
2023/03/20 14:03:36;;;;;;;;;;;17.60;77.80;;;;;;5059078;28;20278;-14
2023/03/20 14:06:21;;;;;;;;;;;17.60;78.50;;;;;;5077158;28;19909;-15
2023/03/20 14:08:51;;;;;;;;;;;17.60;77.80;;;;;;5077884;28;20003;-15
2023/03/20 14:11:20;;;;;;;;;;;17.60;77.90;;;;;;5077149;28;19920;-17
2023/03/20 14:13:47;;;;;;;;;;;17.60;78.00;;;;;;5059229;28;19909;-16
2023/03/20 14:16:18;;;;;;;;;;;17.60;78.10;;;;;;5076984;28;19943;-16
2023/03/20 14:18:46;;;;;;;;;;;17.60;78.10;;;;;;5077686;28;19916;-19
2023/03/20 14:21:12;;;;;;;;;;;17.60;78.10;;;;;;5058659;28;20355;-18
2023/03/20 14:23:41;;;;;;;;;;;17.50;78.30;;;;;;5058392;28;19965;-17
2023/03/20 14:26:09;;;;;;;;;;;17.50;78.50;;;;;;5075659;28;19912;-17
2023/03/20 14:28:56;;;;;;;;;;;17.50;78.60;;;;;;5076998;28;20357;-19
2023/03/20 14:31:44;;;;;;;;;;;17.50;78.70;;;;;;5076543;28;19908;-16
2023/03/20 14:34:17;;;;;;;;;;;17.50;78.70;;;;;;5059038;28;19927;-15
2023/03/20 14:36:57;;;;;;;;;;;17.50;78.80;;;;;;5076898;28;19977;-17
2023/03/20 14:39:25;;;;;;;;;;;17.50;78.80;;;;;;5077074;28;20007;-17
2023/03/20 14:41:53;;;;;;;;;;;17.50;78.90;;;;;;5076727;28;19912;-18
2023/03/20 14:44:51;;;;;;;;;;;17.50;78.90;;;;;;5077339;28;19908;-15
2023/03/20 14:47:27;;;;;;;;;;;17.50;78.90;;;;;;5015197;28;19940;-18
2023/03/20 14:49:52;;;;;;;;;;;17.50;78.80;;;;;;5011173;28;20326;-16